createdAt,value
2023-05-16T18:35:46.250Z,14.26
2023-05-16T18:38:28.249Z,14.17
2023-05-16T18:40:59.474Z,14.04
2023-05-16T18:43:27.116Z,14.02
2023-05-16T18:45:55.171Z,13.84
2023-05-16T18:48:23.224Z,13.74
2023-05-16T18:50:52.538Z,13.71
2023-05-16T18:53:20.330Z,13.61
2023-05-16T18:55:48.610Z,13.59
2023-05-16T18:58:16.430Z,13.48
2023-05-16T19:00:44.205Z,13.52
2023-05-16T19:03:13.452Z,13.48
2023-05-16T19:05:42.184Z,13.32
2023-05-16T19:08:11.468Z,13.19
2023-05-16T19:10:41.500Z,13.12
2023-05-16T19:13:09.185Z,13.03
2023-05-16T19:15:37.475Z,13.00
2023-05-16T19:18:06.582Z,13.01
2023-05-16T19:20:35.775Z,13.06
2023-05-16T19:23:04.151Z,12.98
2023-05-16T19:25:33.384Z,12.86
2023-05-16T19:28:01.079Z,12.89
2023-05-16T19:30:28.966Z,12.72
2023-05-16T19:32:57.074Z,12.76
2023-05-16T19:35:24.868Z,12.70
2023-05-16T19:37:52.634Z,12.63
2023-05-16T19:40:20.408Z,12.64
2023-05-16T19:42:49.726Z,12.50
2023-05-16T19:45:17.410Z,12.42
2023-05-16T19:47:46.114Z,12.45
2023-05-16T19:50:13.921Z,12.50
2023-05-16T19:52:41.608Z,12.36
2023-05-16T19:55:10.552Z,12.28
2023-05-16T19:57:38.377Z,12.28
2023-05-16T20:00:09.485Z,12.39
2023-05-16T20:02:37.123Z,12.30
2023-05-16T20:05:05.434Z,12.28
2023-05-16T20:07:33.140Z,12.35
2023-05-16T20:10:00.884Z,12.28
2023-05-16T20:12:28.638Z,12.23
2023-05-16T20:14:56.375Z,12.17
2023-05-16T20:17:26.334Z,12.07
2023-05-16T20:19:54.094Z,12.10
2023-05-16T20:22:22.316Z,12.09
2023-05-16T20:24:52.308Z,11.93
2023-05-16T20:27:21.640Z,11.92
2023-05-16T20:29:52.099Z,11.83
2023-05-16T20:32:19.943Z,11.78
2023-05-16T20:34:49.069Z,11.71
2023-05-16T20:37:16.698Z,11.76
2023-05-16T20:39:44.413Z,11.63
2023-05-16T20:42:12.473Z,11.61
2023-05-16T20:44:40.898Z,11.51
2023-05-16T20:47:09.107Z,11.56
2023-05-16T20:49:37.725Z,11.61
2023-05-16T20:52:07.361Z,11.47
2023-05-16T20:54:38.250Z,11.47
2023-05-16T20:57:07.233Z,11.46
2023-05-16T20:59:37.287Z,11.37
2023-05-16T21:02:05.795Z,11.43
2023-05-16T21:04:33.401Z,11.34
2023-05-16T21:07:01.024Z,11.28
2023-05-16T21:09:30.210Z,11.18
2023-05-16T21:11:58.513Z,11.22
2023-05-16T21:14:26.496Z,11.24
2023-05-16T21:16:54.192Z,11.07
2023-05-16T21:19:21.966Z,11.05
2023-05-16T21:21:49.636Z,11.01
2023-05-16T21:24:17.258Z,11.08
2023-05-16T21:26:46.249Z,11.06
2023-05-16T21:29:13.948Z,11.00
2023-05-16T21:31:41.666Z,10.95
2023-05-16T21:34:09.677Z,11.01
2023-05-16T21:36:37.695Z,10.95
2023-05-16T21:39:05.679Z,10.88
2023-05-16T21:41:33.295Z,10.98
2023-05-16T21:44:02.321Z,10.93
2023-05-16T21:46:30.176Z,10.91
2023-05-16T21:48:57.876Z,10.82
2023-05-16T21:51:25.875Z,10.75
2023-05-16T21:53:53.649Z,10.72
2023-05-16T21:56:21.383Z,10.65
2023-05-16T21:58:48.969Z,10.52
2023-05-16T22:01:20.044Z,10.64
2023-05-16T22:03:47.772Z,10.58
2023-05-16T22:06:15.659Z,10.61
2023-05-16T22:08:43.398Z,10.55
2023-05-16T22:11:11.470Z,10.48
2023-05-16T22:13:39.210Z,10.46
2023-05-16T22:16:07.676Z,10.48
2023-05-16T22:18:36.959Z,10.43
2023-05-16T22:21:05.107Z,10.35
2023-05-16T22:23:32.888Z,10.33
2023-05-16T22:26:00.518Z,10.36
2023-05-16T22:28:28.135Z,10.36
2023-05-16T22:30:55.836Z,10.33
2023-05-16T22:33:24.148Z,10.15
2023-05-16T22:35:53.820Z,10.17
2023-05-16T22:38:21.439Z,10.20
2023-05-16T22:40:49.070Z,10.12
2023-05-16T22:43:16.802Z,10.12
2023-05-16T22:45:44.580Z,10.11
2023-05-16T22:48:12.331Z,10.14
2023-05-16T22:50:40.169Z,10.04
2023-05-16T22:53:09.317Z,9.92
2023-05-16T22:55:36.854Z,9.88
2023-05-16T22:58:04.507Z,9.95
2023-05-16T23:00:32.157Z,10.02
2023-05-16T23:02:59.913Z,9.92
2023-05-16T23:05:28.055Z,9.95
2023-05-16T23:07:55.870Z,10.01
2023-05-16T23:10:24.903Z,9.82
2023-05-16T23:12:52.519Z,9.87
2023-05-16T23:15:20.389Z,9.77
2023-05-16T23:17:48.083Z,9.81
2023-05-16T23:20:16.068Z,9.76
2023-05-16T23:22:43.680Z,9.82
2023-05-16T23:25:11.324Z,9.76
2023-05-16T23:27:40.290Z,9.80
2023-05-16T23:30:09.468Z,9.72
2023-05-16T23:32:37.320Z,9.73
2023-05-16T23:35:06.003Z,9.87
2023-05-16T23:37:33.832Z,9.80
2023-05-16T23:40:01.491Z,9.73
2023-05-16T23:42:29.177Z,9.68
2023-05-16T23:44:58.156Z,9.69
2023-05-16T23:47:26.430Z,9.70
2023-05-16T23:49:54.092Z,9.74
2023-05-16T23:52:21.877Z,9.79
2023-05-16T23:54:49.501Z,9.76
2023-05-16T23:57:17.289Z,9.72
2023-05-16T23:59:44.906Z,9.68
